createdAt,value
2022-11-04T00:01:19.373Z,8.37
2022-11-04T00:03:46.485Z,8.36
2022-11-04T00:06:13.698Z,8.37
2022-11-04T00:08:43.826Z,8.27
2022-11-04T00:11:29.825Z,8.38
2022-11-04T00:13:57.979Z,8.37
2022-11-04T00:16:43.321Z,8.39
2022-11-04T00:19:10.232Z,8.31
2022-11-04T00:21:55.564Z,8.16
2022-11-04T00:24:41.299Z,8.22
2022-11-04T00:27:32.801Z,8.26
2022-11-04T00:30:00.367Z,8.30
2022-11-04T00:32:46.721Z,8.29
2022-11-04T00:35:14.214Z,8.20
2022-11-04T00:37:42.998Z,8.12
2022-11-04T00:40:12.576Z,8.05
2022-11-04T00:42:40.554Z,8.04
2022-11-04T00:45:07.967Z,8.03
2022-11-04T00:47:35.046Z,7.98
2022-11-04T00:50:02.212Z,7.93
2022-11-04T00:52:29.438Z,7.84
2022-11-04T00:54:56.655Z,7.90
2022-11-04T00:57:24.024Z,7.82
2022-11-04T00:59:50.881Z,7.70
2022-11-04T01:02:18.074Z,7.77
2022-11-04T01:04:46.687Z,7.77
2022-11-04T01:07:14.065Z,7.75
2022-11-04T01:09:41.235Z,7.71
2022-11-04T01:12:08.468Z,7.73
2022-11-04T01:14:35.973Z,7.69
2022-11-04T01:17:03.145Z,7.72
2022-11-04T01:19:30.255Z,7.67
2022-11-04T01:21:57.337Z,7.70
2022-11-04T01:24:24.759Z,7.76
2022-11-04T01:26:51.681Z,7.69
2022-11-04T01:29:18.747Z,7.76
2022-11-04T01:31:45.873Z,7.68
2022-11-04T01:34:12.980Z,7.69
2022-11-04T01:36:40.052Z,7.59
2022-11-04T01:39:07.325Z,7.54
2022-11-04T01:41:34.553Z,7.51
2022-11-04T01:44:39.810Z,7.37
2022-11-04T01:47:14.189Z,7.27
2022-11-04T01:49:43.504Z,7.31
2022-11-04T01:52:15.362Z,7.33
2022-11-04T01:54:45.153Z,7.23
2022-11-04T01:57:19.004Z,7.20
2022-11-04T01:59:47.099Z,7.11
2022-11-04T02:02:14.063Z,7.11
2022-11-04T02:04:43.066Z,7.12
2022-11-04T02:07:11.369Z,7.15
2022-11-04T02:09:40.639Z,7.16
2022-11-04T02:12:26.274Z,7.12
2022-11-04T02:14:55.059Z,7.10
2022-11-04T02:18:08.637Z,7.07
2022-11-04T02:21:19.523Z,6.97
2022-11-04T02:24:14.413Z,7.00
2022-11-04T02:26:59.936Z,7.01
2022-11-04T02:29:36.558Z,6.99
2022-11-04T02:32:12.549Z,6.95
2022-11-04T02:34:49.082Z,6.86
2022-11-04T02:37:37.864Z,6.88
2022-11-04T02:40:21.097Z,6.94
2022-11-04T02:42:54.107Z,6.98
2022-11-04T02:45:36.104Z,6.90
2022-11-04T02:48:29.741Z,6.96
2022-11-04T02:51:36.993Z,6.89
2022-11-04T02:54:12.990Z,6.91
2022-11-04T02:56:47.330Z,6.82
2022-11-04T02:59:23.330Z,6.85
2022-11-04T03:01:53.520Z,6.67
2022-11-04T03:04:28.488Z,6.77
2022-11-04T03:06:58.759Z,6.75
2022-11-04T03:09:29.990Z,6.67
2022-11-04T03:12:03.347Z,6.68
2022-11-04T03:14:41.600Z,6.59
2022-11-04T03:17:33.320Z,6.62
2022-11-04T03:20:03.254Z,6.58
2022-11-04T03:22:36.332Z,6.61
2022-11-04T03:25:06.662Z,6.62
2022-11-04T03:27:42.815Z,6.67
2022-11-04T03:33:39.932Z,6.70
2022-11-04T03:36:09.049Z,6.38
2022-11-04T03:38:37.485Z,6.70
2022-11-04T03:41:10.904Z,6.61
2022-11-04T03:43:41.662Z,6.70
2022-11-04T03:46:08.895Z,6.64
2022-11-04T03:48:36.656Z,6.67
2022-11-04T03:51:03.885Z,6.58
2022-11-04T03:53:32.060Z,6.73
2022-11-04T03:56:17.347Z,6.84
2022-11-04T03:59:12.035Z,6.77
2022-11-04T04:01:49.821Z,6.15
2022-11-04T04:04:49.284Z,6.80
2022-11-04T04:07:24.425Z,6.87
2022-11-04T04:09:59.197Z,6.84
2022-11-04T04:12:41.700Z,6.84
2022-11-04T04:15:22.090Z,6.87
2022-11-04T04:18:21.516Z,6.86
2022-11-04T04:20:50.642Z,6.80
2022-11-04T04:23:42.204Z,6.64
2022-11-04T04:26:28.677Z,6.73
2022-11-04T04:28:57.750Z,6.39
2022-11-04T04:31:46.189Z,6.62
2022-11-04T04:34:14.364Z,6.52
2022-11-04T04:36:49.319Z,6.52
2022-11-04T04:39:41.490Z,6.37
2022-11-04T04:42:27.826Z,6.64
2022-11-04T04:45:04.779Z,6.53
2022-11-04T04:47:45.774Z,6.61
2022-11-04T04:50:18.265Z,6.53
2022-11-04T04:52:50.940Z,6.47
2022-11-04T04:55:19.097Z,6.34
2022-11-04T04:57:46.082Z,6.35
2022-11-04T05:00:16.746Z,6.42
2022-11-04T05:02:44.088Z,6.36
2022-11-04T05:05:13.496Z,6.40
2022-11-04T05:07:48.267Z,6.29
2022-11-04T05:10:16.929Z,6.38
2022-11-04T05:13:03.463Z,6.44
2022-11-04T05:15:32.649Z,6.49
2022-11-04T05:18:02.244Z,6.47
2022-11-04T05:20:30.440Z,6.51
2022-11-04T05:22:57.507Z,6.50
2022-11-04T05:25:24.714Z,6.52
2022-11-04T05:27:51.538Z,6.55
2022-11-04T05:30:19.031Z,6.55
2022-11-04T05:32:46.186Z,6.68
2022-11-04T05:35:13.676Z,6.75
2022-11-04T05:37:41.066Z,6.84
2022-11-04T05:40:08.469Z,6.89
2022-11-04T05:42:37.141Z,6.98
2022-11-04T05:45:06.222Z,7.13
2022-11-04T05:47:33.518Z,7.16
2022-11-04T05:50:00.615Z,7.12
2022-11-04T05:52:27.948Z,7.18
2022-11-04T05:54:55.171Z,7.28
2022-11-04T05:57:22.476Z,7.43
2022-11-04T05:59:49.543Z,7.52
2022-11-04T06:02:17.028Z,7.61
2022-11-04T06:04:43.962Z,7.70
2022-11-04T06:07:12.293Z,7.87
2022-11-04T06:09:39.261Z,7.97
2022-11-04T06:12:11.090Z,8.01
2022-11-04T06:14:38.488Z,8.14
2022-11-04T06:17:06.002Z,8.32
2022-11-04T06:19:33.144Z,8.40
2022-11-04T06:22:00.725Z,8.53
2022-11-04T06:24:28.869Z,8.62
2022-11-04T06:26:56.361Z,8.79
2022-11-04T06:29:23.631Z,8.99
2022-11-04T06:31:50.690Z,9.09
2022-11-04T06:34:17.921Z,9.34
2022-11-04T06:36:44.977Z,9.51
2022-11-04T06:39:12.916Z,9.63
2022-11-04T06:41:42.826Z,9.78
2022-11-04T06:44:10.336Z,9.96
2022-11-04T06:46:39.462Z,10.11
2022-11-04T06:49:07.781Z,10.27
2022-11-04T06:51:35.009Z,10.37
2022-11-04T06:54:01.995Z,10.49
2022-11-04T06:56:29.094Z,10.62
2022-11-04T06:58:57.193Z,10.78
2022-11-04T07:01:27.212Z,10.92
2022-11-04T07:03:57.054Z,11.02
2022-11-04T07:06:25.348Z,11.14
2022-11-04T07:08:53.462Z,11.38
2022-11-04T07:11:22.657Z,11.56
2022-11-04T07:13:49.937Z,11.71
2022-11-04T07:16:18.208Z,11.84
2022-11-04T07:18:45.337Z,12.04
2022-11-04T07:21:13.126Z,12.21
2022-11-04T07:23:40.459Z,12.28
2022-11-04T07:26:09.114Z,12.45
2022-11-04T07:28:37.384Z,12.57
2022-11-04T07:31:06.348Z,12.72
2022-11-04T07:33:34.279Z,12.88
2022-11-04T07:36:05.997Z,12.99
2022-11-04T07:38:33.369Z,13.05
2022-11-04T07:41:02.584Z,13.17
2022-11-04T07:43:30.998Z,13.25
2022-11-04T07:46:10.817Z,13.44
2022-11-04T07:48:39.886Z,13.52
2022-11-04T07:51:09.505Z,13.65
2022-11-04T07:53:36.731Z,13.78
2022-11-04T07:56:05.952Z,13.86
2022-11-04T07:58:33.009Z,14.00
2022-11-04T08:01:02.050Z,14.20
2022-11-04T08:03:29.190Z,14.30
2022-11-04T08:05:58.418Z,14.45
2022-11-04T08:08:26.457Z,14.58
2022-11-04T08:10:58.926Z,14.74
2022-11-04T08:13:29.457Z,14.83
2022-11-04T08:15:57.825Z,14.88
2022-11-04T08:18:24.942Z,15.01
2022-11-04T08:20:52.624Z,15.13
2022-11-04T08:23:20.407Z,15.20
2022-11-04T08:25:47.469Z,15.24
2022-11-04T08:28:17.810Z,15.34
2022-11-04T08:31:01.579Z,15.44
2022-11-04T08:33:51.697Z,15.62
2022-11-04T08:36:22.026Z,15.69
2022-11-04T08:38:50.012Z,15.77
2022-11-04T08:41:20.034Z,15.86
2022-11-04T08:43:48.284Z,15.99
2022-11-04T08:46:15.479Z,16.13
2022-11-04T08:48:43.460Z,16.17
2022-11-04T08:51:17.866Z,16.27
2022-11-04T08:53:45.263Z,16.39
2022-11-04T08:56:19.062Z,16.43
2022-11-04T08:58:46.151Z,16.60
2022-11-04T09:01:14.261Z,16.81
2022-11-04T09:03:42.273Z,16.91
2022-11-04T09:06:12.327Z,16.90
2022-11-04T09:08:39.877Z,16.76
2022-11-04T09:11:09.577Z,16.94
2022-11-04T09:13:39.809Z,16.99
2022-11-04T09:16:09.491Z,17.08
2022-11-04T09:18:37.168Z,17.18
2022-11-04T09:21:06.404Z,17.24
2022-11-04T09:23:38.817Z,17.30
2022-11-04T09:26:13.074Z,17.45
2022-11-04T09:28:41.484Z,17.57
2022-11-04T09:31:13.501Z,17.67
2022-11-04T09:33:40.816Z,17.82
2022-11-04T09:36:09.249Z,17.92
2022-11-04T09:38:41.195Z,18.01
2022-11-04T09:41:46.128Z,18.13
2022-11-04T09:44:16.156Z,18.19
2022-11-04T09:46:44.641Z,18.28
2022-11-04T09:49:13.732Z,18.36
2022-11-04T09:51:57.959Z,18.42
2022-11-04T09:54:45.870Z,18.45
2022-11-04T09:57:18.345Z,18.57
2022-11-04T09:59:47.104Z,18.52
2022-11-04T10:02:29.153Z,18.75
2022-11-04T10:05:05.465Z,18.89
2022-11-04T10:07:51.419Z,18.92
2022-11-04T10:10:50.446Z,19.08
2022-11-04T10:13:51.149Z,19.18
2022-11-04T10:16:42.966Z,19.15
2022-11-04T10:19:20.371Z,19.22
2022-11-04T10:22:29.274Z,19.32
2022-11-04T10:25:03.849Z,19.36
2022-11-04T10:27:35.490Z,19.52
2022-11-04T10:30:15.842Z,19.62
2022-11-04T10:33:01.945Z,19.69
2022-11-04T10:35:40.845Z,19.73
2022-11-04T10:38:16.183Z,19.77
2022-11-04T10:40:48.198Z,19.94
2022-11-04T10:43:26.051Z,19.94
2022-11-04T10:46:01.443Z,20.04
2022-11-04T10:48:43.894Z,20.02
2022-11-04T10:51:10.946Z,20.14
2022-11-04T10:53:38.085Z,20.28
2022-11-04T10:56:21.888Z,20.32
2022-11-04T10:58:49.163Z,20.32
2022-11-04T11:01:49.704Z,20.46
2022-11-04T11:04:31.939Z,20.52
2022-11-04T11:07:00.782Z,20.59
2022-11-04T11:09:34.410Z,20.37
2022-11-04T11:12:49.553Z,20.80
2022-11-04T11:15:30.933Z,20.84
2022-11-04T11:18:11.110Z,20.89
2022-11-04T11:20:41.032Z,21.05
2022-11-04T11:23:35.351Z,20.98
2022-11-04T11:26:03.734Z,21.08
2022-11-04T11:28:38.379Z,21.07
2022-11-04T11:31:13.468Z,20.84
2022-11-04T11:33:55.006Z,21.03
2022-11-04T11:36:27.164Z,21.15
2022-11-04T11:39:05.994Z,21.20
2022-11-04T11:41:52.915Z,21.31
2022-11-04T11:44:37.175Z,21.38
2022-11-04T11:47:17.816Z,21.43
2022-11-04T11:49:45.282Z,21.45
2022-11-04T11:52:27.747Z,21.60
2022-11-04T11:55:03.674Z,21.78
2022-11-04T11:57:39.365Z,21.81
2022-11-04T12:03:14.434Z,22.07
2022-11-04T12:09:19.525Z,22.05
2022-11-04T12:11:49.506Z,22.14
2022-11-04T12:14:19.185Z,22.09
2022-11-04T12:17:13.911Z,22.05
2022-11-04T12:20:18.963Z,21.97
2022-11-04T12:22:45.953Z,21.83
2022-11-04T12:25:23.354Z,21.83
2022-11-04T12:28:06.211Z,21.84
2022-11-04T12:30:46.426Z,21.75
2022-11-04T12:33:28.280Z,21.76
2022-11-04T12:36:21.939Z,21.68
2022-11-04T12:38:57.359Z,21.71
2022-11-04T12:41:46.706Z,21.73
2022-11-04T12:44:45.285Z,21.67
2022-11-04T12:47:38.501Z,21.65
2022-11-04T12:50:43.534Z,21.74
2022-11-04T12:53:36.110Z,21.70
2022-11-04T12:56:14.841Z,21.77
2022-11-04T12:58:53.945Z,21.73
2022-11-04T13:01:30.353Z,21.77
2022-11-04T13:04:12.158Z,21.84
2022-11-04T13:07:16.250Z,21.82
2022-11-04T13:10:00.641Z,21.84
2022-11-04T13:12:35.495Z,21.93
2022-11-04T13:15:16.773Z,21.97
2022-11-04T13:17:45.929Z,21.99
2022-11-04T13:20:15.868Z,22.01
2022-11-04T13:22:47.259Z,21.88
2022-11-04T13:25:29.735Z,21.87
2022-11-04T13:27:58.336Z,21.85
2022-11-04T13:30:41.398Z,21.81
2022-11-04T13:33:37.684Z,21.79
2022-11-04T13:36:07.235Z,21.77
2022-11-04T13:38:42.294Z,21.70
2022-11-04T13:41:21.563Z,21.59
2022-11-04T13:43:59.299Z,21.51
2022-11-04T13:46:35.253Z,21.45
2022-11-04T13:49:11.657Z,21.45
2022-11-04T13:51:44.690Z,21.31
2022-11-04T13:54:31.953Z,21.38
2022-11-04T13:57:09.941Z,21.40
2022-11-04T13:59:37.132Z,21.30
2022-11-04T14:02:13.084Z,21.27
2022-11-04T14:04:42.598Z,21.13
2022-11-04T14:07:14.419Z,21.13
2022-11-04T14:09:44.744Z,21.10
2022-11-04T14:12:13.658Z,21.04
2022-11-04T14:14:50.988Z,20.91
2022-11-04T14:17:33.438Z,20.84
2022-11-04T14:20:11.780Z,20.77
2022-11-04T14:22:44.960Z,20.70
2022-11-04T14:25:44.427Z,20.62
2022-11-04T14:28:14.396Z,20.58
2022-11-04T14:30:44.581Z,20.48
2022-11-04T14:33:35.450Z,20.34
2022-11-04T14:36:20.951Z,20.18
2022-11-04T14:39:12.186Z,20.08
2022-11-04T14:42:02.731Z,19.96
2022-11-04T14:44:41.950Z,19.86
2022-11-04T14:47:31.282Z,19.76
2022-11-04T14:49:58.352Z,19.81
2022-11-04T14:52:33.547Z,19.66
2022-11-04T14:55:33.445Z,19.51
2022-11-04T14:58:21.919Z,19.41
2022-11-04T15:00:49.343Z,19.32
2022-11-04T15:06:07.458Z,19.13
2022-11-04T15:08:52.149Z,18.95
2022-11-04T15:11:42.489Z,18.88
2022-11-04T15:14:20.609Z,18.76
2022-11-04T15:16:54.333Z,18.59
2022-11-04T15:19:35.581Z,18.39
2022-11-04T15:22:05.307Z,18.31
2022-11-04T15:24:33.206Z,18.26
2022-11-04T15:27:05.111Z,18.18
2022-11-04T15:29:32.784Z,18.17
2022-11-04T15:32:05.688Z,18.02
2022-11-04T15:34:35.645Z,17.93
2022-11-04T15:37:05.680Z,17.87
2022-11-04T15:39:39.487Z,17.78
2022-11-04T15:42:30.113Z,17.80
2022-11-04T15:44:57.418Z,17.70
2022-11-04T15:47:27.411Z,17.66
2022-11-04T15:50:06.161Z,17.67
2022-11-04T15:52:33.305Z,17.57
2022-11-04T15:55:02.971Z,17.55
2022-11-04T15:57:34.973Z,17.48
2022-11-04T16:00:19.847Z,17.39
2022-11-04T16:02:50.268Z,17.42
2022-11-04T16:05:22.740Z,17.38
2022-11-04T16:07:52.020Z,17.36
2022-11-04T16:10:31.698Z,17.32
2022-11-04T16:13:17.234Z,17.21
2022-11-04T16:15:51.966Z,17.08
2022-11-04T16:18:37.366Z,17.04
2022-11-04T16:21:26.088Z,16.93
2022-11-04T16:24:06.981Z,16.88
2022-11-04T16:26:40.362Z,16.61
2022-11-04T16:29:13.622Z,16.65
2022-11-04T16:31:40.681Z,16.57
2022-11-04T16:34:12.381Z,16.39
2022-11-04T16:36:39.785Z,16.31
2022-11-04T16:39:09.680Z,16.19
2022-11-04T16:41:40.688Z,16.16
2022-11-04T16:44:19.401Z,16.09
2022-11-04T16:46:46.448Z,16.10
2022-11-04T16:49:19.047Z,16.11
2022-11-04T16:51:50.844Z,15.99
2022-11-04T16:54:17.829Z,16.00
2022-11-04T16:56:45.576Z,15.92
2022-11-04T16:59:12.852Z,15.89
2022-11-04T17:01:40.088Z,15.92
2022-11-04T17:04:07.914Z,15.92
2022-11-04T17:06:35.542Z,15.91
2022-11-04T17:09:02.584Z,15.86
2022-11-04T17:11:32.557Z,15.87
2022-11-04T17:13:59.535Z,15.80
2022-11-04T17:16:26.371Z,15.72
2022-11-04T17:18:53.438Z,15.65
2022-11-04T17:21:20.993Z,15.68
2022-11-04T17:23:47.966Z,15.65
2022-11-04T17:26:15.293Z,15.60
2022-11-04T17:28:42.330Z,15.59
2022-11-04T17:31:17.173Z,15.57
2022-11-04T17:33:44.570Z,15.45
2022-11-04T17:36:20.687Z,15.38
2022-11-04T17:38:48.273Z,15.37
2022-11-04T17:41:33.638Z,15.27
2022-11-04T17:44:00.764Z,15.30
2022-11-04T17:46:35.771Z,15.28
2022-11-04T17:49:13.236Z,15.22
2022-11-04T17:51:46.123Z,15.04
2022-11-04T17:54:18.180Z,15.07
2022-11-04T17:56:45.117Z,15.02
2022-11-04T17:59:14.173Z,14.97
2022-11-04T18:01:43.106Z,14.86
2022-11-04T18:04:19.750Z,14.77
2022-11-04T18:06:46.853Z,14.74
2022-11-04T18:09:15.683Z,14.70
2022-11-04T18:12:02.106Z,14.60
2022-11-04T18:14:29.282Z,14.54
2022-11-04T18:16:56.257Z,14.63
2022-11-04T18:19:23.930Z,14.59
2022-11-04T18:21:51.458Z,14.56
2022-11-04T18:24:19.440Z,14.51
2022-11-04T18:26:46.767Z,14.46
2022-11-04T18:29:14.174Z,14.44
2022-11-04T18:31:48.611Z,14.39
2022-11-04T18:34:18.944Z,14.29
2022-11-04T18:36:47.639Z,14.21
2022-11-04T18:39:17.470Z,14.12
2022-11-04T18:41:45.829Z,14.14
2022-11-04T18:44:21.029Z,14.00
2022-11-04T18:46:49.026Z,13.95
2022-11-04T18:49:17.048Z,13.93
2022-11-04T18:51:44.413Z,13.91
2022-11-04T18:54:12.237Z,13.82
2022-11-04T18:56:39.429Z,13.81
2022-11-04T18:59:26.102Z,13.75
2022-11-04T19:01:53.850Z,13.66
2022-11-04T19:04:20.943Z,13.64
2022-11-04T19:06:47.875Z,13.54
2022-11-04T19:12:22.749Z,13.47
2022-11-04T19:14:50.075Z,13.30
2022-11-04T19:17:16.976Z,13.25
2022-11-04T19:19:43.993Z,13.23
2022-11-04T19:22:11.869Z,13.16
2022-11-04T19:24:39.706Z,13.09
2022-11-04T19:27:07.005Z,13.01
2022-11-04T19:29:34.011Z,12.91
2022-11-04T19:32:01.315Z,12.95
2022-11-04T19:34:28.283Z,12.91
2022-11-04T19:36:55.353Z,12.86
2022-11-04T19:39:22.374Z,12.77
2022-11-04T19:42:08.171Z,12.80
2022-11-04T19:44:35.180Z,12.73
2022-11-04T19:47:02.005Z,12.72
2022-11-04T19:49:31.672Z,12.73
2022-11-04T19:51:59.258Z,12.76
2022-11-04T19:54:27.152Z,12.83
2022-11-04T19:56:54.451Z,12.82
2022-11-04T19:59:21.425Z,12.78
2022-11-04T20:01:48.487Z,12.72
2022-11-04T20:04:15.650Z,12.60
2022-11-04T20:06:42.689Z,12.48
2022-11-04T20:09:11.078Z,12.40
2022-11-04T20:12:00.122Z,12.32
2022-11-04T20:14:28.305Z,12.23
2022-11-04T20:16:55.476Z,12.23
2022-11-04T20:19:23.590Z,12.22
2022-11-04T20:21:52.178Z,12.27
2022-11-04T20:24:19.291Z,12.31
2022-11-04T20:26:49.376Z,12.36
2022-11-04T20:29:17.049Z,12.44
2022-11-04T20:31:44.807Z,12.53
2022-11-04T20:34:14.253Z,12.57
2022-11-04T20:36:41.882Z,12.61
2022-11-04T20:39:20.445Z,12.57
2022-11-04T20:41:47.721Z,12.49
2022-11-04T20:44:16.055Z,12.50
2022-11-04T20:46:44.289Z,12.59
2022-11-04T20:49:12.222Z,12.57
2022-11-04T20:51:42.318Z,12.43
2022-11-04T20:54:11.335Z,12.44
2022-11-04T20:56:40.336Z,12.36
2022-11-04T20:59:08.012Z,12.32
2022-11-04T21:01:38.214Z,12.23
2022-11-04T21:04:18.979Z,12.22
2022-11-04T21:06:51.104Z,12.07
2022-11-04T21:09:20.429Z,12.01
2022-11-04T21:11:48.392Z,12.11
2022-11-04T21:14:16.686Z,12.20
2022-11-04T21:16:44.252Z,12.15
2022-11-04T21:19:12.239Z,12.06
2022-11-04T21:21:41.516Z,12.09
2022-11-04T21:24:10.345Z,12.11
2022-11-04T21:26:37.248Z,12.04
2022-11-04T21:29:06.810Z,12.05
2022-11-04T21:31:38.964Z,12.09
2022-11-04T21:34:06.020Z,12.04
2022-11-04T21:36:33.828Z,11.98
2022-11-04T21:39:00.924Z,11.90
2022-11-04T21:41:33.456Z,11.95
2022-11-04T21:44:03.107Z,11.98
2022-11-04T21:46:31.826Z,11.98
2022-11-04T21:48:59.196Z,11.93
2022-11-04T21:51:31.501Z,11.90
2022-11-04T21:54:00.193Z,11.87
2022-11-04T21:56:29.649Z,11.88
2022-11-04T21:58:57.124Z,11.88
2022-11-04T22:01:26.788Z,11.80
2022-11-04T22:03:56.730Z,11.74
2022-11-04T22:06:25.729Z,11.68
2022-11-04T22:08:56.511Z,11.62
2022-11-04T22:11:29.335Z,11.35
2022-11-04T22:13:58.266Z,11.55
2022-11-04T22:16:27.579Z,11.55
2022-11-04T22:18:56.662Z,11.58
2022-11-04T22:21:25.396Z,11.51
2022-11-04T22:23:53.079Z,11.49
2022-11-04T22:26:24.264Z,11.51
2022-11-04T22:28:52.306Z,11.40
2022-11-04T22:31:21.923Z,11.32
2022-11-04T22:33:50.284Z,11.43
2022-11-04T22:36:17.505Z,11.40
2022-11-04T22:38:44.733Z,11.42
2022-11-04T22:41:17.362Z,11.38
2022-11-04T22:43:44.472Z,11.31
2022-11-04T22:46:31.837Z,11.14
2022-11-04T22:49:02.002Z,11.16
2022-11-04T22:51:33.825Z,11.12
2022-11-04T22:54:07.707Z,11.12
2022-11-04T22:56:35.778Z,11.10
2022-11-04T22:59:02.889Z,10.98
2022-11-04T23:01:31.710Z,11.01
2022-11-04T23:03:58.949Z,11.09
2022-11-04T23:06:26.007Z,10.96
2022-11-04T23:08:59.617Z,11.01
2022-11-04T23:11:46.364Z,10.89
2022-11-04T23:14:33.742Z,10.89
2022-11-04T23:17:19.401Z,10.82
2022-11-04T23:19:46.570Z,10.78
2022-11-04T23:22:31.893Z,10.71
2022-11-04T23:25:11.301Z,10.65
2022-11-04T23:28:03.632Z,10.69
2022-11-04T23:30:33.991Z,10.63
2022-11-04T23:33:03.168Z,10.66
2022-11-04T23:35:52.754Z,10.57
2022-11-04T23:38:20.202Z,10.48
2022-11-04T23:41:07.635Z,10.47
2022-11-04T23:43:35.737Z,10.49
2022-11-04T23:46:21.517Z,10.48
2022-11-04T23:49:06.751Z,10.38
2022-11-04T23:51:52.194Z,10.33
2022-11-04T23:54:38.326Z,10.27
2022-11-04T23:57:30.467Z,10.12
